Time;durP1;ratioP1;P1;durP2;ratioP2;P2;SDS_P1;SDS_P2;PMS_P1;PMS_P2;Temp;Humidity;BMP_temperature;BMP_pressure;BME280_temperature;BME280_humidity;BME280_pressure;Samples;Min_cycle;Max_cycle;Signal;HPM_P1;HPM_P2
2022/06/09 00:01:26;;;;;;;3.72;1.00;;;19.90;99.90;;;;;;5082746;28;20024;-82
2022/06/09 00:04:22;;;;;;;1.77;1.23;;;19.90;99.90;;;;;;5073376;28;20430;-83
2022/06/09 00:06:50;;;;;;;1.70;1.50;;;19.90;99.90;;;;;;5058830;28;20052;-82
2022/06/09 00:09:20;;;;;;;1.40;1.00;;;19.80;99.90;;;;;;5076687;28;20027;-82
2022/06/09 00:11:49;;;;;;;1.55;0.90;;;19.80;99.90;;;;;;5083778;28;20054;-82
2022/06/09 00:14:16;;;;;;;1.33;1.20;;;19.80;99.90;;;;;;5085038;28;20032;-82
2022/06/09 00:16:43;;;;;;;1.05;0.95;;;19.80;99.90;;;;;;5080356;28;20024;-82
2022/06/09 00:19:10;;;;;;;3.17;1.30;;;19.80;99.90;;;;;;5076440;28;20513;-82
2022/06/09 00:21:37;;;;;;;1.58;1.00;;;19.80;99.90;;;;;;5081162;28;20081;-83
2022/06/09 00:24:03;;;;;;;4.25;1.20;;;19.80;99.90;;;;;;5076050;28;20021;-83
2022/06/09 00:26:30;;;;;;;2.63;1.10;;;19.90;99.90;;;;;;5076519;28;20126;-82
2022/06/09 00:28:56;;;;;;;5.93;1.17;;;19.90;99.90;;;;;;5087807;28;20027;-82
2022/06/09 00:31:22;;;;;;;1.60;1.50;;;19.90;99.90;;;;;;5083228;28;20028;-82
2022/06/09 00:33:48;;;;;;;1.25;1.15;;;19.90;99.90;;;;;;5076615;28;20506;-82
2022/06/09 00:36:14;;;;;;;2.10;1.10;;;19.80;99.90;;;;;;5079373;28;20031;-82
2022/06/09 00:38:40;;;;;;;6.57;1.40;;;19.80;99.90;;;;;;5075921;28;20169;-82
2022/06/09 00:41:06;;;;;;;3.33;1.20;;;19.70;99.90;;;;;;5079151;28;20119;-83
2022/06/09 00:43:32;;;;;;;2.28;1.20;;;19.70;99.90;;;;;;5087597;28;20025;-82
2022/06/09 00:46:05;;;;;;;3.13;1.20;;;19.70;99.90;;;;;;5078474;28;20522;-82
2022/06/09 00:48:52;;;;;;;3.70;1.40;;;19.70;99.90;;;;;;5077064;28;20017;-82
2022/06/09 00:51:34;;;;;;;1.67;1.30;;;19.70;99.90;;;;;;5075757;28;20020;-82
2022/06/09 00:54:12;;;;;;;;;;;19.60;99.90;;;;;;5064981;28;20047;-82
2022/06/09 00:56:43;;;;;;;2.83;1.48;;;19.60;99.90;;;;;;5081416;28;19957;-82
2022/06/09 00:59:15;;;;;;;9.10;1.50;;;19.60;99.90;;;;;;5075711;28;20095;-83
2022/06/09 01:01:41;;;;;;;2.30;1.40;;;19.60;99.90;;;;;;5079722;28;20428;-82
2022/06/09 01:04:11;;;;;;;1.48;1.13;;;19.70;99.90;;;;;;5076037;28;20029;-82
2022/06/09 01:06:48;;;;;;;1.25;1.15;;;19.70;99.90;;;;;;5080091;28;20035;-83
2022/06/09 01:09:19;;;;;;;1.92;1.25;;;19.70;99.90;;;;;;5075542;28;20073;-83
2022/06/09 01:11:47;;;;;;;2.63;1.02;;;19.60;99.90;;;;;;5085020;28;20127;-82
2022/06/09 01:14:16;;;;;;;1.77;1.05;;;19.70;99.90;;;;;;5086293;28;20035;-83
2022/06/09 01:17:15;;;;;;;3.03;1.23;;;19.60;99.90;;;;;;5084615;28;20493;-83
2022/06/09 01:20:00;;;;;;;1.92;1.20;;;19.70;99.90;;;;;;5080854;28;20374;-82
2022/06/09 01:22:42;;;;;;;3.45;1.42;;;19.60;99.90;;;;;;5078527;28;20056;-82
2022/06/09 01:25:23;;;;;;;5.15;1.10;;;19.70;99.90;;;;;;5081056;28;20442;-82
2022/06/09 01:27:59;;;;;;;2.38;1.30;;;19.70;99.90;;;;;;5074031;28;20525;-82
2022/06/09 01:30:50;;;;;;;2.47;1.23;;;19.70;99.90;;;;;;5064081;28;20029;-82
2022/06/09 01:33:36;;;;;;;2.45;1.10;;;19.80;99.90;;;;;;5080001;28;20046;-82
2022/06/09 01:36:18;;;;;;;2.80;1.30;;;19.80;99.90;;;;;;5081631;28;20089;-82
2022/06/09 01:38:57;;;;;;;2.35;1.30;;;19.80;99.90;;;;;;5079046;28;20122;-82
2022/06/09 01:41:24;;;;;;;2.45;1.17;;;19.90;99.90;;;;;;5079021;28;20027;-81
2022/06/09 01:43:52;;;;;;;1.98;1.10;;;19.90;99.90;;;;;;5084606;28;20024;-82
2022/06/09 01:46:31;;;;;;;3.70;1.30;;;19.90;99.90;;;;;;5077573;28;20162;-82
2022/06/09 01:49:01;;;;;;;3.83;1.30;;;20.00;99.90;;;;;;5068097;28;20414;-82
2022/06/09 01:51:30;;;;;;;2.50;1.30;;;19.90;99.90;;;;;;5082469;28;20031;-82
2022/06/09 01:54:01;;;;;;;3.63;1.45;;;20.00;99.90;;;;;;5068868;28;20036;-82
2022/06/09 01:56:43;;;;;;;2.67;1.50;;;20.00;99.90;;;;;;5082581;28;20421;-82
2022/06/09 01:59:29;;;;;;;3.60;1.40;;;20.00;99.90;;;;;;5072424;28;20028;-82
2022/06/09 02:02:21;;;;;;;1.40;1.23;;;20.00;99.90;;;;;;5081410;28;20058;-82
2022/06/09 02:04:55;;;;;;;1.25;1.15;;;20.10;99.90;;;;;;5068943;28;20055;-82
2022/06/09 02:07:23;;;;;;;1.40;1.30;;;20.10;99.90;;;;;;5077941;28;20186;-82
2022/06/09 02:09:49;;;;;;;1.77;1.20;;;20.10;99.90;;;;;;5081522;28;20060;-82
2022/06/09 02:12:23;;;;;;;1.13;1.10;;;20.10;99.90;;;;;;5088446;28;20502;-82
2022/06/09 02:14:52;;;;;;;1.98;1.27;;;20.10;99.90;;;;;;5081671;28;20028;-82
2022/06/09 02:17:18;;;;;;;2.97;1.15;;;20.10;99.90;;;;;;5060653;28;20039;-82
2022/06/09 02:19:47;;;;;;;4.40;1.38;;;20.10;99.90;;;;;;5076589;28;20024;-82
2022/06/09 02:22:13;;;;;;;2.92;1.40;;;20.10;99.90;;;;;;5082019;28;20030;-82
2022/06/09 02:24:39;;;;;;;4.25;1.40;;;20.10;99.90;;;;;;5082271;28;20027;-82
2022/06/09 02:27:06;;;;;;;8.02;1.60;;;20.10;99.90;;;;;;5078258;28;20108;-83
2022/06/09 02:29:33;;;;;;;7.85;2.35;;;20.20;99.90;;;;;;5078557;28;20028;-82
2022/06/09 02:31:59;;;;;;;9.43;3.38;;;20.10;99.90;;;;;;5083371;28;20024;-81
2022/06/09 02:34:25;;;;;;;16.20;2.80;;;19.80;99.90;;;;;;5076674;28;20156;-82
2022/06/09 02:36:50;;;;;;;18.60;3.55;;;19.00;99.90;;;;;;5081213;28;20372;-84
2022/06/09 02:39:16;;;;;;;60.13;6.03;;;18.00;99.90;;;;;;5083830;28;20028;-85
2022/06/09 02:41:42;;;;;;;137.07;13.60;;;17.30;99.90;;;;;;5078795;28;20031;-87
2022/06/09 02:44:07;;;;;;;73.43;12.68;;;17.20;99.90;;;;;;5084674;28;20043;-83
2022/06/09 02:46:33;;;;;;;51.85;14.52;;;17.10;99.90;;;;;;5082776;28;20403;-84
2022/06/09 02:48:59;;;;;;;237.50;32.67;;;17.00;99.90;;;;;;5076399;28;20058;-85
2022/06/09 02:51:32;;;;;;;102.72;18.08;;;16.90;99.90;;;;;;5081123;28;20367;-86
2022/06/09 02:54:01;;;;;;;72.03;15.07;;;16.90;99.90;;;;;;5068534;28;20028;-86
2022/06/09 02:56:27;;;;;;;45.97;12.77;;;16.90;99.90;;;;;;5079128;28;20033;-84
2022/06/09 02:58:53;;;;;;;34.65;12.40;;;16.90;99.90;;;;;;5088103;28;20475;-84
2022/06/09 03:01:20;;;;;;;26.90;11.20;;;16.80;99.90;;;;;;5077140;28;20035;-85
2022/06/09 03:03:46;;;;;;;37.15;13.48;;;16.80;99.90;;;;;;5087579;28;20023;-83
2022/06/09 03:06:12;;;;;;;56.53;16.05;;;16.70;99.90;;;;;;5079107;28;20020;-83
2022/06/09 03:08:38;;;;;;;74.90;17.73;;;16.60;99.90;;;;;;5078209;28;20020;-84
2022/06/09 03:11:04;;;;;;;67.35;16.65;;;16.50;99.90;;;;;;5077668;28;20021;-84
2022/06/09 03:13:30;;;;;;;65.28;19.27;;;16.50;99.90;;;;;;5084369;28;20399;-87
2022/06/09 03:15:55;;;;;;;63.97;19.63;;;16.50;99.90;;;;;;5080490;28;20016;-83
2022/06/09 03:18:22;;;;;;;70.45;20.23;;;16.40;99.90;;;;;;5084278;28;20488;-80
2022/06/09 03:20:49;;;;;;;54.45;17.05;;;16.40;99.90;;;;;;5079451;28;20016;-84
2022/06/09 03:23:15;;;;;;;61.30;16.65;;;16.30;99.90;;;;;;5078562;28;20024;-82
2022/06/09 03:25:43;;;;;;;35.97;14.07;;;16.20;99.90;;;;;;5080389;28;20490;-83
2022/06/09 03:28:10;;;;;;;47.38;16.98;;;16.10;99.90;;;;;;5078933;28;20490;-83
2022/06/09 03:30:35;;;;;;;59.30;16.83;;;16.00;99.90;;;;;;5079163;28;20469;-83
2022/06/09 03:33:01;;;;;;;45.80;20.20;;;16.00;99.90;;;;;;5078486;28;20064;-84
2022/06/09 03:35:27;;;;;;;48.80;25.35;;;16.00;99.90;;;;;;5081310;28;20027;-84
2022/06/09 03:37:53;;;;;;;46.50;25.52;;;16.10;99.90;;;;;;5080783;28;20046;-84
2022/06/09 03:40:20;;;;;;;46.00;24.48;;;16.20;99.90;;;;;;5076113;28;20445;-81
2022/06/09 03:42:46;;;;;;;44.78;25.23;;;16.20;99.90;;;;;;5072632;28;20055;-84
2022/06/09 03:45:12;;;;;;;53.60;26.35;;;16.20;99.90;;;;;;5077904;28;20067;-85
2022/06/09 03:47:38;;;;;;;52.45;25.10;;;16.30;99.90;;;;;;5078904;28;20027;-85
2022/06/09 03:50:07;;;;;;;46.58;25.55;;;16.30;99.90;;;;;;5077294;28;20490;-84
2022/06/09 03:52:32;;;;;;;55.83;26.48;;;16.30;99.90;;;;;;5087959;28;20308;-83
2022/06/09 03:54:58;;;;;;;56.90;27.88;;;16.40;99.90;;;;;;5077756;28;20037;-84
2022/06/09 03:57:24;;;;;;;80.28;30.30;;;16.30;99.90;;;;;;5079835;28;20043;-84
2022/06/09 03:59:50;;;;;;;58.58;29.17;;;16.20;99.90;;;;;;5078135;28;20024;-83
2022/06/09 04:02:15;;;;;;;111.50;38.35;;;16.30;99.90;;;;;;5078746;28;20023;-85
2022/06/09 04:04:41;;;;;;;76.15;42.83;;;16.30;99.90;;;;;;5077529;28;20035;-84
2022/06/09 04:07:07;;;;;;;82.93;45.53;;;16.20;99.90;;;;;;5080267;28;20012;-82
2022/06/09 04:09:33;;;;;;;89.82;46.47;;;16.20;99.90;;;;;;5075955;28;20048;-82
2022/06/09 04:11:59;;;;;;;108.72;53.45;;;16.20;99.90;;;;;;5074486;28;20076;-83
2022/06/09 04:14:24;;;;;;;148.50;57.97;;;16.20;99.90;;;;;;5083383;28;20111;-85
2022/06/09 04:16:55;;;;;;;105.00;58.17;;;16.20;99.90;;;;;;5079570;28;20028;-83
2022/06/09 04:19:22;;;;;;;126.78;62.47;;;16.10;99.90;;;;;;5081818;28;20021;-83
2022/06/09 04:21:48;;;;;;;130.15;64.85;;;16.20;99.90;;;;;;5082612;28;20633;-83
2022/06/09 04:24:17;;;;;;;122.30;64.68;;;16.30;99.90;;;;;;5078200;28;20020;-84
2022/06/09 04:26:43;;;;;;;106.35;59.90;;;16.30;99.90;;;;;;5079110;28;20505;-82
2022/06/09 04:29:11;;;;;;;77.75;48.75;;;16.30;99.90;;;;;;5084412;28;20033;-84
2022/06/09 04:31:39;;;;;;;92.28;54.05;;;16.20;99.90;;;;;;5073386;28;20040;-82
2022/06/09 04:34:04;;;;;;;80.72;46.90;;;16.20;99.90;;;;;;5083010;28;20036;-83
2022/06/09 04:36:30;;;;;;;82.85;47.33;;;16.20;99.90;;;;;;5079635;28;20077;-83
2022/06/09 04:38:56;;;;;;;94.13;52.00;;;16.20;99.90;;;;;;5076370;28;20047;-83
2022/06/09 04:41:22;;;;;;;97.50;55.20;;;16.20;99.90;;;;;;5074751;28;20096;-82
2022/06/09 04:43:48;;;;;;;96.88;54.20;;;16.20;99.90;;;;;;5086647;28;20024;-80
2022/06/09 04:46:18;;;;;;;93.10;55.22;;;16.20;99.90;;;;;;5082153;28;20027;-83
2022/06/09 04:48:44;;;;;;;92.30;56.85;;;16.20;99.90;;;;;;5079533;28;20066;-80
2022/06/09 04:51:12;;;;;;;100.18;59.38;;;16.10;99.90;;;;;;5087009;28;20020;-79
2022/06/09 04:53:39;;;;;;;86.18;51.40;;;16.10;99.90;;;;;;5078775;28;20024;-80
2022/06/09 04:56:06;;;;;;;73.68;47.85;;;16.00;99.90;;;;;;5081320;28;20563;-84
2022/06/09 04:58:32;;;;;;;59.47;42.45;;;16.00;99.90;;;;;;5080019;28;20050;-80
2022/06/09 05:00:58;;;;;;;41.45;29.08;;;15.90;99.90;;;;;;5082408;28;20028;-79
2022/06/09 05:03:24;;;;;;;42.75;33.88;;;15.90;99.90;;;;;;5081105;28;20376;-79
2022/06/09 05:05:50;;;;;;;53.65;38.17;;;15.80;99.90;;;;;;5077258;28;20025;-79
2022/06/09 05:08:17;;;;;;;39.72;31.92;;;16.00;99.90;;;;;;5084863;28;20043;-79
2022/06/09 05:10:45;;;;;;;36.90;29.45;;;16.00;99.90;;;;;;5084035;28;20107;-79
2022/06/09 05:13:11;;;;;;;26.08;21.95;;;16.00;99.90;;;;;;5079321;28;20079;-81
2022/06/09 05:15:49;;;;;;;31.05;24.73;;;16.10;99.90;;;;;;5083469;28;20035;-80
2022/06/09 05:18:15;;;;;;;33.47;25.75;;;16.10;99.90;;;;;;5075494;28;20019;-80
2022/06/09 05:20:40;;;;;;;33.08;26.08;;;16.20;99.90;;;;;;5084508;28;20031;-79
2022/06/09 05:23:06;;;;;;;45.25;30.05;;;16.30;99.90;;;;;;5085481;28;20426;-81
2022/06/09 05:25:31;;;;;;;25.17;22.67;;;16.50;99.90;;;;;;5081215;28;20036;-82
2022/06/09 05:27:59;;;;;;;17.55;15.73;;;16.50;99.90;;;;;;5082310;28;20486;-83
2022/06/09 05:30:25;;;;;;;26.40;17.23;;;16.50;99.90;;;;;;5079635;28;20023;-80
2022/06/09 05:32:51;;;;;;;20.50;18.50;;;16.40;99.90;;;;;;5093233;28;20012;-84
2022/06/09 05:35:18;;;;;;;17.13;15.52;;;16.30;99.90;;;;;;5079097;28;20032;-82
2022/06/09 05:45:59;;;;;;;13.25;11.90;;;16.20;99.90;;;;;;5078297;28;20035;-81
2022/06/09 05:48:25;;;;;;;12.57;11.48;;;16.10;99.90;;;;;;5068365;28;20039;-81
2022/06/09 05:50:52;;;;;;;13.52;12.27;;;16.40;99.90;;;;;;5075565;28;20021;-82
2022/06/09 05:53:18;;;;;;;13.38;12.27;;;16.50;99.90;;;;;;5072718;28;20024;-81
2022/06/09 05:55:43;;;;;;;8.98;8.27;;;16.60;99.90;;;;;;5078745;28;20093;-80
2022/06/09 05:58:10;;;;;;;9.23;8.45;;;16.60;99.90;;;;;;5083999;28;20478;-82
2022/06/09 06:00:36;;;;;;;9.70;8.07;;;16.30;99.90;;;;;;5079943;28;20065;-81
2022/06/09 06:03:02;;;;;;;9.50;8.70;;;16.40;99.90;;;;;;5081844;28;20032;-81
2022/06/09 06:08:12;;;;;;;8.63;7.85;;;16.70;99.90;;;;;;5081027;28;20127;-78
2022/06/09 06:10:37;;;;;;;7.40;6.90;;;16.80;99.90;;;;;;5081851;28;20074;-78
2022/06/09 06:13:03;;;;;;;8.90;7.90;;;16.90;99.90;;;;;;5092918;28;20052;-79
2022/06/09 06:15:29;;;;;;;7.88;7.20;;;17.00;99.90;;;;;;5084102;28;20036;-81
2022/06/09 06:17:56;;;;;;;8.77;8.00;;;17.10;99.90;;;;;;5083278;28;20087;-80
2022/06/09 06:20:23;;;;;;;5.25;4.85;;;17.20;99.90;;;;;;5076940;28;20498;-80
2022/06/09 06:22:49;;;;;;;5.07;4.68;;;17.10;99.90;;;;;;5081993;28;20028;-81
2022/06/09 06:25:15;;;;;;;4.70;4.32;;;17.10;99.90;;;;;;5077944;28;20020;-81
2022/06/09 06:27:42;;;;;;;6.63;6.10;;;17.20;99.90;;;;;;5084608;28;20030;-81
2022/06/09 06:30:08;;;;;;;4.95;4.63;;;17.20;99.90;;;;;;5080266;28;20017;-82
2022/06/09 06:32:34;;;;;;;7.55;5.07;;;17.20;99.90;;;;;;5082001;28;20020;-82
2022/06/09 06:35:01;;;;;;;4.20;3.80;;;17.20;99.90;;;;;;5082502;28;20020;-82
2022/06/09 06:37:26;;;;;;;3.60;3.30;;;16.90;99.90;;;;;;5083790;28;20447;-82
2022/06/09 06:39:52;;;;;;;4.38;4.07;;;16.90;99.90;;;;;;5081359;28;20107;-82
2022/06/09 06:42:18;;;;;;;3.92;3.30;;;17.10;99.90;;;;;;5088584;28;20064;-82
2022/06/09 06:44:44;;;;;;;2.72;2.45;;;17.10;99.90;;;;;;5082477;28;20115;-82
2022/06/09 06:47:11;;;;;;;3.45;3.00;;;16.80;99.90;;;;;;5083328;28;20029;-82
2022/06/09 06:49:37;;;;;;;4.80;4.40;;;16.90;99.90;;;;;;5085982;28;20107;-80
2022/06/09 06:52:03;;;;;;;4.07;3.40;;;17.20;99.90;;;;;;5080967;28;20507;-85
2022/06/09 06:54:30;;;;;;;2.85;2.63;;;17.40;99.90;;;;;;5078028;28;20575;-80
2022/06/09 06:56:55;;;;;;;3.95;3.65;;;17.40;99.90;;;;;;5082665;28;20021;-82
2022/06/09 06:59:21;;;;;;;2.53;2.33;;;17.50;99.90;;;;;;5079001;28;20391;-83
2022/06/09 07:01:47;;;;;;;4.45;2.53;;;17.60;99.90;;;;;;5077878;28;20066;-83
2022/06/09 07:04:13;;;;;;;2.90;2.70;;;17.50;99.90;;;;;;5076267;28;20122;-83
2022/06/09 07:06:38;;;;;;;1.95;1.85;;;17.50;99.90;;;;;;5076559;28;20024;-83
2022/06/09 07:09:04;;;;;;;3.65;2.75;;;17.40;99.90;;;;;;5072012;28;20032;-82
2022/06/09 07:11:30;;;;;;;4.18;3.03;;;17.50;99.90;;;;;;5071496;28;20390;-83
2022/06/09 07:13:55;;;;;;;3.40;3.10;;;17.70;99.90;;;;;;5081963;28;20048;-83
2022/06/09 07:16:21;;;;;;;2.47;1.92;;;18.10;99.90;;;;;;5080309;28;20020;-83
2022/06/09 07:18:47;;;;;;;2.20;1.90;;;17.90;99.90;;;;;;5077611;28;20051;-83
2022/06/09 07:21:14;;;;;;;4.22;2.42;;;17.70;99.90;;;;;;5079979;28;20024;-83
2022/06/09 07:23:40;;;;;;;3.17;2.53;;;17.90;99.90;;;;;;5075573;28;20062;-83
2022/06/09 07:26:06;;;;;;;2.70;2.50;;;18.30;99.90;;;;;;5073977;28;20482;-83
2022/06/09 07:28:32;;;;;;;2.58;2.38;;;18.60;99.90;;;;;;5075508;28;20037;-84
2022/06/09 07:31:00;;;;;;;2.05;1.63;;;18.50;99.90;;;;;;5070658;28;20036;-85
2022/06/09 07:33:29;;;;;;;2.67;1.90;;;18.30;99.90;;;;;;5068404;28;20024;-85
2022/06/09 07:35:56;;;;;;;2.40;1.90;;;18.00;99.90;;;;;;5078487;28;20024;-84
2022/06/09 07:38:24;;;;;;;2.20;1.48;;;17.90;99.90;;;;;;5076341;28;20379;-84
2022/06/09 07:40:50;;;;;;;2.85;1.70;;;17.80;99.90;;;;;;5076628;28;20418;-84
2022/06/09 07:43:19;;;;;;;2.00;1.80;;;17.70;99.90;;;;;;5083203;28;20032;-85
2022/06/09 07:45:47;;;;;;;1.80;1.70;;;17.80;99.90;;;;;;5077751;28;20024;-84
2022/06/09 07:48:13;;;;;;;1.42;1.33;;;17.90;99.90;;;;;;5076811;28;20550;-85
2022/06/09 07:50:40;;;;;;;1.67;1.40;;;17.90;99.90;;;;;;5075473;28;20028;-84
2022/06/09 07:53:06;;;;;;;4.75;1.80;;;17.90;99.90;;;;;;5089361;28;20066;-85
2022/06/09 07:55:33;;;;;;;2.05;1.80;;;17.80;99.90;;;;;;5076043;28;20017;-86
2022/06/09 07:57:59;;;;;;;2.92;1.83;;;18.00;99.90;;;;;;5078538;28;20060;-85
2022/06/09 08:00:26;;;;;;;1.50;1.25;;;18.50;99.90;;;;;;5077250;28;20044;-86
2022/06/09 08:02:52;;;;;;;1.52;1.42;;;18.40;99.90;;;;;;5080072;28;20267;-86
2022/06/09 08:05:21;;;;;;;2.25;1.50;;;18.40;99.90;;;;;;5077410;28;20029;-86
2022/06/09 08:07:47;;;;;;;1.30;1.20;;;18.70;99.90;;;;;;5078740;28;20116;-86
2022/06/09 08:10:18;;;;;;;4.63;1.20;;;18.70;99.90;;;;;;5079984;28;20377;-86
2022/06/09 08:12:45;;;;;;;1.40;1.27;;;18.50;99.90;;;;;;5081660;28;20097;-86
2022/06/09 08:15:11;;;;;;;2.47;1.45;;;18.40;99.90;;;;;;5076096;28;20108;-85
2022/06/09 08:17:38;;;;;;;1.30;1.20;;;18.30;99.90;;;;;;5078559;28;20510;-85
2022/06/09 08:20:06;;;;;;;2.15;1.33;;;18.30;99.90;;;;;;5075504;28;20424;-85
2022/06/09 08:22:32;;;;;;;1.33;1.20;;;18.30;99.90;;;;;;5076349;28;20161;-85
2022/06/09 08:24:58;;;;;;;1.40;1.20;;;18.30;99.90;;;;;;5076332;28;20119;-85
2022/06/09 08:27:24;;;;;;;2.55;1.20;;;18.30;99.90;;;;;;5074744;28;20491;-84
2022/06/09 08:29:51;;;;;;;3.40;1.20;;;18.40;99.90;;;;;;5073975;28;20027;-84
2022/06/09 08:32:17;;;;;;;2.88;1.73;;;18.50;99.90;;;;;;5076527;28;20035;-83
2022/06/09 08:34:43;;;;;;;2.10;1.20;;;18.60;99.90;;;;;;5071778;28;20419;-85
2022/06/09 08:37:08;;;;;;;1.05;1.05;;;18.50;99.90;;;;;;5076441;28;20036;-86
2022/06/09 08:39:34;;;;;;;2.88;1.67;;;18.30;99.90;;;;;;5073747;28;20025;-85
2022/06/09 08:42:18;;;;;;;1.20;1.10;;;18.40;99.90;;;;;;5074928;28;20133;-85
2022/06/09 08:45:02;;;;;;;3.28;1.33;;;18.70;99.90;;;;;;5076884;28;20040;-83
2022/06/09 08:47:47;;;;;;;1.02;1.00;;;19.00;99.90;;;;;;5075382;28;20505;-82
2022/06/09 08:50:33;;;;;;;1.55;0.90;;;18.80;99.90;;;;;;5072496;28;20345;-82
2022/06/09 08:53:13;;;;;;;3.88;1.20;;;18.50;99.90;;;;;;5070929;28;20032;-83
2022/06/09 08:55:44;;;;;;;2.00;0.90;;;18.60;99.90;;;;;;5071227;28;20579;-82
2022/06/09 08:58:32;;;;;;;1.27;1.10;;;18.90;99.90;;;;;;5072864;28;20471;-83
2022/06/09 09:01:24;;;;;;;2.58;1.10;;;19.00;99.90;;;;;;5074625;28;20028;-83
2022/06/09 09:03:58;;;;;;;0.98;0.98;;;19.30;99.90;;;;;;5035657;28;20068;-82
2022/06/09 09:06:38;;;;;;;0.95;0.95;;;19.30;99.90;;;;;;5076351;28;20016;-85
2022/06/09 09:09:27;;;;;;;1.55;1.13;;;19.20;99.90;;;;;;5061240;28;20082;-84
2022/06/09 09:12:02;;;;;;;3.88;1.00;;;18.90;99.90;;;;;;5081206;28;20190;-85
2022/06/09 09:14:36;;;;;;;1.08;0.98;;;18.70;99.90;;;;;;5077512;28;20032;-85
2022/06/09 09:17:23;;;;;;;1.77;1.00;;;18.70;99.90;;;;;;5074314;28;20493;-84
2022/06/09 09:19:56;;;;;;;1.17;0.98;;;18.70;99.90;;;;;;5072113;28;20020;-84
2022/06/09 09:22:51;;;;;;;1.23;0.90;;;19.00;99.90;;;;;;5071787;28;20386;-85
2022/06/09 09:25:17;;;;;;;1.92;1.00;;;19.00;99.90;;;;;;5070150;28;20043;-84
2022/06/09 09:27:50;;;;;;;2.80;0.90;;;18.80;99.90;;;;;;5075563;28;20020;-85
2022/06/09 09:30:23;;;;;;;1.77;1.30;;;18.90;99.90;;;;;;5074513;28;20047;-85
2022/06/09 09:32:54;;;;;;;11.13;4.03;;;19.10;99.90;;;;;;5076213;28;20024;-85
2022/06/09 09:35:33;;;;;;;5.80;2.17;;;19.20;99.90;;;;;;5078553;28;20228;-85
2022/06/09 09:38:00;;;;;;;7.22;1.70;;;19.10;99.90;;;;;;5074070;28;20028;-85
2022/06/09 09:40:39;;;;;;;5.05;1.80;;;19.50;99.90;;;;;;5076415;28;20162;-82
2022/06/09 09:43:17;;;;;;;1.30;1.20;;;19.80;99.90;;;;;;5086724;28;20032;-83
2022/06/09 09:45:49;;;;;;;1.52;1.13;;;19.80;99.90;;;;;;5073907;28;20117;-84
2022/06/09 09:48:17;;;;;;;0.88;0.88;;;19.80;99.90;;;;;;5077227;28;20390;-84
2022/06/09 09:51:16;;;;;;;2.97;1.20;;;19.90;99.90;;;;;;5077642;28;20028;-83
2022/06/09 09:53:47;;;;;;;3.25;1.48;;;19.90;99.90;;;;;;5031544;28;20398;-83
2022/06/09 09:56:16;;;;;;;2.35;1.73;;;19.90;99.90;;;;;;5081791;28;20427;-84
2022/06/09 09:58:47;;;;;;;9.60;4.38;;;19.70;99.90;;;;;;5075424;28;20035;-84
2022/06/09 10:01:16;;;;;;;2.80;1.58;;;19.70;99.90;;;;;;5072958;28;20035;-84
2022/06/09 10:09:49;;;;;;;3.58;1.33;;;19.90;99.90;;;;;;5076404;28;20065;-84
2022/06/09 10:12:26;;;;;;;9.23;3.40;;;19.80;99.90;;;;;;5086702;28;20036;-82
2022/06/09 10:14:51;;;;;;;1.63;1.38;;;19.80;99.90;;;;;;5079165;28;20123;-83
2022/06/09 10:17:30;;;;;;;1.67;1.40;;;20.10;99.90;;;;;;5073733;28;20132;-84
2022/06/09 10:20:25;;;;;;;3.08;1.73;;;20.10;99.90;;;;;;5076509;28;20276;-84
2022/06/09 10:23:09;;;;;;;9.02;4.07;;;19.80;99.90;;;;;;5071347;28;20123;-84
2022/06/09 10:25:57;;;;;;;2.28;1.90;;;19.90;99.90;;;;;;5076312;28;20092;-83
2022/06/09 10:28:43;;;;;;;6.57;2.22;;;19.60;99.90;;;;;;5074795;28;20475;-83
2022/06/09 10:31:16;;;;;;;4.28;1.95;;;19.50;99.90;;;;;;5076827;28;20791;-84
2022/06/09 10:33:45;;;;;;;;;;;19.40;99.90;;;;;;5075531;28;20024;-83
2022/06/09 10:36:21;;;;;;;2.80;1.73;;;19.70;99.90;;;;;;5072431;28;19999;-83
2022/06/09 10:39:09;;;;;;;3.60;2.05;;;19.80;99.90;;;;;;5070338;28;20062;-83
2022/06/09 10:41:42;;;;;;;4.03;2.13;;;19.70;99.90;;;;;;5083657;28;20434;-83
2022/06/09 10:44:19;;;;;;;2.60;2.40;;;19.30;99.90;;;;;;5081581;28;20032;-83
2022/06/09 10:56:40;;;;;;;7.72;1.70;;;19.30;99.90;;;;;;5071998;28;20043;-81
2022/06/09 10:59:36;;;;;;;1.98;1.70;;;19.10;99.90;;;;;;5067437;28;20027;-83
2022/06/09 11:02:09;;;;;;;1.85;1.50;;;19.10;99.90;;;;;;5077241;28;20031;-83
2022/06/09 11:04:36;;;;;;;3.58;1.65;;;19.40;99.90;;;;;;5078618;28;20035;-83
2022/06/09 11:07:17;;;;;;;2.30;1.48;;;19.60;99.90;;;;;;5075532;28;20386;-81
2022/06/09 11:10:18;;;;;;;5.05;1.65;;;19.60;99.90;;;;;;5076858;28;20020;-81
2022/06/09 11:12:55;;;;;;;2.53;1.60;;;19.60;99.90;;;;;;5057872;28;20536;-84
2022/06/09 11:15:51;;;;;;;3.13;1.50;;;19.60;99.90;;;;;;5070511;28;20530;-82
2022/06/09 11:18:43;;;;;;;1.40;1.30;;;19.80;99.90;;;;;;5053474;28;20534;-82
2022/06/09 11:21:42;;;;;;;5.72;1.42;;;19.90;99.90;;;;;;5074957;28;20024;-82
2022/06/09 11:24:13;;;;;;;2.50;1.30;;;19.90;99.90;;;;;;5079628;28;20047;-83
2022/06/09 11:26:42;;;;;;;5.43;1.30;;;20.10;99.90;;;;;;5075074;28;20085;-83
2022/06/09 11:29:08;;;;;;;1.27;1.15;;;20.30;99.90;;;;;;5080724;28;20021;-82
2022/06/09 11:32:02;;;;;;;1.92;1.33;;;20.30;99.90;;;;;;5077377;28;20078;-82
2022/06/09 11:34:49;;;;;;;2.63;1.23;;;20.10;99.90;;;;;;5072349;28;20024;-82
2022/06/09 11:37:37;;;;;;;2.60;1.40;;;20.00;99.90;;;;;;5077039;28;20020;-82
2022/06/09 11:40:28;;;;;;;3.33;1.58;;;19.90;99.90;;;;;;5078949;28;20078;-81
2022/06/09 11:43:21;;;;;;;5.93;1.70;;;19.80;99.90;;;;;;5055209;28;20123;-81
2022/06/09 11:46:01;;;;;;;3.47;1.52;;;19.70;99.90;;;;;;5072764;28;20455;-82
2022/06/09 11:48:44;;;;;;;2.90;1.50;;;19.60;99.90;;;;;;5074567;28;20013;-81
2022/06/09 11:51:10;;;;;;;;;;;19.30;99.90;;;;;;5076359;28;20111;-82
2022/06/09 11:53:40;;;;;;;3.00;1.70;;;18.90;99.90;;;;;;5073300;28;19927;-83
2022/06/09 11:56:33;;;;;;;3.85;1.70;;;18.70;99.90;;;;;;5079136;28;20122;-82
2022/06/09 11:59:01;;;;;;;2.97;2.17;;;18.80;99.90;;;;;;5062924;28;20428;-82
2022/06/09 12:01:39;;;;;;;5.88;2.00;;;18.80;99.90;;;;;;5076903;28;20032;-82
2022/06/09 12:04:19;;;;;;;8.80;3.50;;;18.70;99.90;;;;;;5064462;28;20040;-82
2022/06/09 12:07:09;;;;;;;8.40;3.40;;;18.50;99.90;;;;;;5078331;28;20034;-82
2022/06/09 12:10:13;;;;;;;7.90;4.20;;;18.40;99.90;;;;;;5072962;28;20579;-83
2022/06/09 12:12:43;;;;;;;10.32;4.15;;;18.40;99.90;;;;;;5077330;28;20530;-82
2022/06/09 12:15:08;;;;;;;8.32;4.03;;;18.40;99.90;;;;;;5076383;28;20058;-82
2022/06/09 12:17:36;;;;;;;8.73;4.20;;;18.40;99.90;;;;;;5079041;28;20052;-83
2022/06/09 12:20:23;;;;;;;4.43;3.20;;;18.30;99.90;;;;;;5073834;28;20024;-83
2022/06/09 12:23:01;;;;;;;9.80;3.90;;;18.30;99.90;;;;;;5075001;28;20119;-82
2022/06/09 12:25:33;;;;;;;10.55;3.97;;;18.30;99.90;;;;;;5071661;28;20028;-83
2022/06/09 12:27:59;;;;;;;6.93;4.28;;;18.30;99.90;;;;;;5075792;28;20025;-84
2022/06/09 12:30:29;;;;;;;5.68;4.47;;;18.40;99.90;;;;;;5073476;28;20037;-83
2022/06/09 12:33:23;;;;;;;6.18;4.15;;;18.50;99.90;;;;;;5075693;28;20024;-84
2022/06/09 12:36:15;;;;;;;5.55;4.05;;;18.60;99.90;;;;;;5075715;28;20028;-84
2022/06/09 12:38:51;;;;;;;5.47;3.05;;;18.60;99.90;;;;;;5070026;28;20081;-83
2022/06/09 12:41:29;;;;;;;6.57;3.60;;;18.60;99.90;;;;;;5067343;28;20078;-82
2022/06/09 12:44:18;;;;;;;6.22;4.65;;;18.60;99.90;;;;;;5077807;28;20440;-84
2022/06/09 12:46:50;;;;;;;12.75;4.70;;;18.70;99.90;;;;;;5077185;28;20028;-83
2022/06/09 12:49:22;;;;;;;5.82;4.43;;;18.60;99.90;;;;;;5072719;28;20158;-82
2022/06/09 12:51:48;;;;;;;13.98;3.80;;;18.60;99.90;;;;;;5078300;28;20027;-83
2022/06/09 12:54:27;;;;;;;7.10;3.05;;;18.60;99.90;;;;;;5071147;28;20021;-82
2022/06/09 12:57:13;;;;;;;3.60;2.47;;;18.60;99.90;;;;;;5076493;28;20040;-83
2022/06/09 12:59:41;;;;;;;8.65;2.50;;;18.50;99.90;;;;;;5079134;28;20024;-82
2022/06/09 13:02:23;;;;;;;5.43;2.50;;;18.50;99.90;;;;;;5077951;28;20036;-84
2022/06/09 13:04:51;;;;;;;4.63;2.08;;;18.60;99.90;;;;;;5075132;28;20032;-83
2022/06/09 13:07:38;;;;;;;6.18;2.38;;;18.70;99.90;;;;;;5084775;28;20024;-82
2022/06/09 13:10:29;;;;;;;7.88;2.60;;;18.80;99.90;;;;;;5080470;28;20028;-83
2022/06/09 13:13:13;;;;;;;6.38;2.35;;;19.00;99.90;;;;;;5083174;28;20044;-83
2022/06/09 13:15:52;;;;;;;7.40;3.60;;;19.10;99.90;;;;;;5077089;28;20469;-82
2022/06/09 13:18:32;;;;;;;7.65;3.78;;;19.10;99.90;;;;;;5079335;28;20031;-81
2022/06/09 13:21:17;;;;;;;10.75;3.90;;;18.90;99.90;;;;;;5080577;28;20428;-82
2022/06/09 13:23:48;;;;;;;8.57;3.30;;;18.70;99.90;;;;;;5079189;28;20036;-82
2022/06/09 13:26:20;;;;;;;9.13;4.00;;;18.60;99.90;;;;;;5078135;28;20107;-82
2022/06/09 13:28:53;;;;;;;9.70;4.05;;;18.40;99.90;;;;;;5078491;28;20099;-81
2022/06/09 13:31:39;;;;;;;;;;;18.40;99.90;;;;;;5087195;28;20294;-82
2022/06/09 13:34:13;;;;;;;8.20;4.50;;;18.30;99.90;;;;;;5071217;28;20377;-82